Time;durP1;ratioP1;P1;durP2;ratioP2;P2;SDS_P1;SDS_P2;PMS_P1;PMS_P2;Temp;Humidity;BMP_temperature;BMP_pressure;BME280_temperature;BME280_humidity;BME280_pressure;Samples;Min_cycle;Max_cycle;Signal;HPM_P1;HPM_P2
2021/10/14 00:00:07;;;;;;;0.68;0.60;;;15.80;78.90;;;;;;5136727;27;20054;-64
2021/10/14 00:02:33;;;;;;;0.50;0.50;;;15.80;78.90;;;;;;5136718;27;20440;-64
2021/10/14 00:04:58;;;;;;;1.45;0.50;;;15.80;78.90;;;;;;5136502;27;20042;-64
2021/10/14 00:07:24;;;;;;;0.40;0.32;;;15.70;78.80;;;;;;5136519;27;20495;-63
2021/10/14 00:09:50;;;;;;;0.45;0.40;;;15.70;78.90;;;;;;5136681;27;20486;-65
2021/10/14 00:12:15;;;;;;;0.35;0.28;;;15.70;79.50;;;;;;5136205;27;20120;-64
2021/10/14 00:14:41;;;;;;;0.63;0.60;;;15.70;78.90;;;;;;5136502;27;20046;-65
2021/10/14 00:17:07;;;;;;;0.40;0.40;;;15.80;78.90;;;;;;5118046;27;20518;-64
2021/10/14 00:19:32;;;;;;;0.82;0.60;;;15.80;79.50;;;;;;5136664;27;20043;-66
2021/10/14 00:21:58;;;;;;;0.55;0.47;;;15.80;78.90;;;;;;5117948;27;20137;-66
2021/10/14 00:24:24;;;;;;;0.55;0.55;;;15.80;78.90;;;;;;5135466;27;20050;-65
2021/10/14 00:26:49;;;;;;;0.80;0.40;;;15.80;78.90;;;;;;5136242;27;20111;-64
2021/10/14 00:29:15;;;;;;;0.50;0.50;;;15.80;78.90;;;;;;5136215;27;20039;-64
2021/10/14 00:31:41;;;;;;;0.30;0.30;;;15.80;78.90;;;;;;5136300;27;20043;-66
2021/10/14 00:34:06;;;;;;;0.38;0.35;;;15.80;78.90;;;;;;5135912;27;20081;-64
2021/10/14 00:36:32;;;;;;;0.45;0.40;;;15.90;79.00;;;;;;5135993;27;20058;-66
2021/10/14 00:38:58;;;;;;;0.50;0.50;;;15.80;78.90;;;;;;5135578;27;20047;-65
2021/10/14 00:41:23;;;;;;;0.50;0.50;;;15.80;78.90;;;;;;5135739;27;20523;-65
2021/10/14 00:43:57;;;;;;;0.70;0.40;;;15.80;78.90;;;;;;5136253;27;20107;-66
2021/10/14 00:46:23;;;;;;;0.50;0.50;;;15.80;78.90;;;;;;5134366;27;20054;-66
2021/10/14 00:48:48;;;;;;;0.73;0.60;;;15.80;78.90;;;;;;5136270;27;20031;-64
2021/10/14 00:51:14;;;;;;;0.55;0.45;;;15.80;78.90;;;;;;5135519;27;20614;-66
2021/10/14 00:53:40;;;;;;;0.30;0.30;;;15.80;79.00;;;;;;5135916;27;20387;-64
2021/10/14 00:56:07;;;;;;;0.57;0.43;;;15.80;78.90;;;;;;5134398;27;20038;-65
2021/10/14 00:58:37;;;;;;;0.40;0.40;;;15.80;78.90;;;;;;5135884;27;20047;-64
2021/10/14 01:01:04;;;;;;;0.55;0.50;;;15.80;78.90;;;;;;5135522;27;20067;-65
2021/10/14 01:03:30;;;;;;;1.77;0.55;;;15.80;79.60;;;;;;5135908;27;20077;-66
2021/10/14 01:05:57;;;;;;;0.80;0.50;;;15.80;78.90;;;;;;5134580;27;20031;-66
2021/10/14 01:08:23;;;;;;;0.40;0.40;;;15.80;78.90;;;;;;5135204;27;20127;-65
2021/10/14 01:10:49;;;;;;;0.40;0.40;;;15.80;78.90;;;;;;5134593;27;20050;-66
2021/10/14 01:13:16;;;;;;;0.40;0.40;;;15.80;78.90;;;;;;5135205;27;20059;-66
2021/10/14 01:15:44;;;;;;;0.88;0.47;;;15.80;78.90;;;;;;5135286;27;20035;-66
2021/10/14 01:18:11;;;;;;;0.40;0.40;;;15.80;78.90;;;;;;5134695;27;20043;-66
2021/10/14 01:20:37;;;;;;;0.50;0.50;;;15.80;78.90;;;;;;5134813;27;20043;-65
2021/10/14 01:23:03;;;;;;;0.60;0.50;;;15.80;78.90;;;;;;5134910;27;20050;-66
2021/10/14 01:25:30;;;;;;;0.55;0.40;;;15.80;78.90;;;;;;5135334;27;20041;-66
2021/10/14 01:27:55;;;;;;;0.90;0.43;;;15.80;78.90;;;;;;5134154;27;20475;-66
2021/10/14 01:30:21;;;;;;;0.50;0.50;;;15.80;78.90;;;;;;5134920;27;20039;-65
2021/10/14 01:32:49;;;;;;;0.45;0.40;;;15.80;78.90;;;;;;5134868;27;20035;-64
2021/10/14 01:35:18;;;;;;;0.30;0.30;;;15.80;78.90;;;;;;5134712;27;20035;-64
2021/10/14 01:37:45;;;;;;;0.75;0.50;;;15.80;78.90;;;;;;5135105;27;20046;-66
2021/10/14 01:40:12;;;;;;;0.55;0.55;;;15.80;78.90;;;;;;5134845;27;20037;-65
2021/10/14 01:42:38;;;;;;;0.40;0.40;;;15.80;78.90;;;;;;5134418;27;20045;-65
2021/10/14 01:45:04;;;;;;;0.80;0.50;;;15.80;78.90;;;;;;5134560;27;20027;-66
2021/10/14 01:47:30;;;;;;;0.55;0.52;;;15.80;78.90;;;;;;5134404;27;20043;-66
2021/10/14 01:49:56;;;;;;;0.32;0.32;;;15.80;78.90;;;;;;5135165;27;20046;-66
2021/10/14 01:52:22;;;;;;;0.30;0.30;;;15.80;78.90;;;;;;5099518;27;20054;-66
2021/10/14 01:54:48;;;;;;;0.38;0.38;;;15.80;78.90;;;;;;5135043;27;20039;-65
2021/10/14 01:57:14;;;;;;;0.75;0.55;;;15.80;78.90;;;;;;5124807;27;20134;-65
2021/10/14 01:59:40;;;;;;;0.52;0.47;;;15.80;79.50;;;;;;5133799;27;20115;-63
2021/10/14 02:02:05;;;;;;;0.35;0.30;;;15.80;78.90;;;;;;5134094;27;20039;-65
2021/10/14 02:04:31;;;;;;;0.40;0.40;;;15.80;78.90;;;;;;5134888;27;20176;-65
2021/10/14 02:06:56;;;;;;;0.95;0.40;;;15.80;78.90;;;;;;5134303;27;20084;-64
2021/10/14 02:09:22;;;;;;;0.60;0.43;;;15.80;78.90;;;;;;5134411;27;20115;-64
2021/10/14 02:11:48;;;;;;;0.50;0.40;;;15.80;78.90;;;;;;5115732;27;20517;-66
2021/10/14 02:14:13;;;;;;;0.55;0.50;;;15.80;78.90;;;;;;5134173;27;20039;-65
2021/10/14 02:16:39;;;;;;;0.38;0.38;;;15.80;78.90;;;;;;5133434;27;20110;-65
2021/10/14 02:19:05;;;;;;;0.30;0.30;;;15.80;78.90;;;;;;5133798;27;20042;-62
2021/10/14 02:21:30;;;;;;;0.50;0.50;;;15.80;78.90;;;;;;5134331;27;20118;-65
2021/10/14 02:23:56;;;;;;;0.52;0.50;;;15.80;78.90;;;;;;5133992;27;20343;-63
2021/10/14 02:26:22;;;;;;;1.02;0.57;;;15.80;78.90;;;;;;5134030;27;20735;-64
2021/10/14 02:28:47;;;;;;;1.13;0.40;;;15.80;78.90;;;;;;5134009;27;20443;-64
2021/10/14 02:31:13;;;;;;;0.47;0.47;;;15.80;78.90;;;;;;5133418;27;20122;-65
2021/10/14 02:33:39;;;;;;;0.30;0.30;;;15.80;78.90;;;;;;5133940;27;20449;-65
2021/10/14 02:36:05;;;;;;;0.40;0.40;;;15.80;78.90;;;;;;5133425;27;20039;-64
2021/10/14 02:38:30;;;;;;;0.40;0.40;;;15.80;78.90;;;;;;5133826;27;20471;-65
2021/10/14 02:40:56;;;;;;;0.47;0.47;;;15.80;78.90;;;;;;5133615;27;20046;-64
2021/10/14 02:43:21;;;;;;;0.45;0.45;;;15.80;78.90;;;;;;5133554;27;20049;-64
2021/10/14 02:45:47;;;;;;;0.50;0.50;;;15.80;78.90;;;;;;5133271;27;20118;-64
2021/10/14 02:48:13;;;;;;;1.00;0.43;;;15.80;78.90;;;;;;5114598;27;20090;-64
2021/10/14 02:50:39;;;;;;;0.30;0.30;;;15.80;78.90;;;;;;5114911;27;20087;-61
2021/10/14 02:53:04;;;;;;;1.30;0.50;;;15.80;78.90;;;;;;5133401;27;20119;-64
2021/10/14 02:55:30;;;;;;;0.50;0.50;;;15.80;78.90;;;;;;5133587;27;20039;-66
2021/10/14 02:57:56;;;;;;;0.45;0.45;;;15.90;78.90;;;;;;5133308;27;20044;-64
2021/10/14 03:00:21;;;;;;;0.40;0.40;;;15.80;78.90;;;;;;5133033;27;20050;-63
2021/10/14 03:02:47;;;;;;;0.50;0.40;;;15.80;78.90;;;;;;5132822;27;20039;-64
2021/10/14 03:05:12;;;;;;;0.65;0.40;;;15.80;78.90;;;;;;5133291;27;20039;-66
2021/10/14 03:07:38;;;;;;;0.60;0.50;;;15.70;78.80;;;;;;5133229;27;20045;-63
2021/10/14 03:10:04;;;;;;;0.63;0.43;;;15.80;78.80;;;;;;5133494;27;20398;-64
2021/10/14 03:12:30;;;;;;;0.45;0.45;;;15.80;78.90;;;;;;5113833;27;20126;-65
2021/10/14 03:14:55;;;;;;;0.47;0.47;;;15.80;78.90;;;;;;5133134;27;20118;-65
2021/10/14 03:17:21;;;;;;;0.40;0.40;;;15.80;78.90;;;;;;5132937;28;20043;-64
2021/10/14 03:19:46;;;;;;;0.30;0.30;;;15.80;78.90;;;;;;5133479;28;20031;-65
2021/10/14 03:22:12;;;;;;;0.47;0.40;;;15.80;78.90;;;;;;5133056;28;20403;-64
2021/10/14 03:24:38;;;;;;;0.30;0.30;;;15.80;78.90;;;;;;5132993;28;20094;-64
2021/10/14 03:27:03;;;;;;;0.40;0.40;;;15.80;78.90;;;;;;5133554;28;20130;-65
2021/10/14 03:29:29;;;;;;;0.47;0.30;;;15.80;78.90;;;;;;5136750;27;20047;-66
2021/10/14 03:31:55;;;;;;;0.85;0.50;;;15.80;78.90;;;;;;5137105;27;20038;-62
2021/10/14 03:34:20;;;;;;;0.40;0.40;;;15.80;78.90;;;;;;5136261;27;20036;-64
2021/10/14 03:36:46;;;;;;;0.80;0.63;;;15.80;78.90;;;;;;5136680;27;20069;-65
2021/10/14 03:39:12;;;;;;;0.52;0.40;;;15.80;78.90;;;;;;5118669;27;20530;-64
2021/10/14 03:41:37;;;;;;;0.40;0.40;;;15.80;78.90;;;;;;5137286;27;20087;-65
2021/10/14 03:44:03;;;;;;;0.45;0.40;;;15.80;78.90;;;;;;5136899;27;20479;-63
2021/10/14 03:46:29;;;;;;;0.50;0.50;;;15.80;78.90;;;;;;5136498;27;20468;-63
2021/10/14 03:48:54;;;;;;;0.50;0.50;;;15.80;78.90;;;;;;5136353;27;20047;-65
2021/10/14 03:51:39;;;;;;;0.52;0.47;;;15.90;78.90;;;;;;5136945;27;20031;-65
2021/10/14 03:54:04;;;;;;;0.30;0.30;;;15.80;78.90;;;;;;5136484;27;20104;-65
2021/10/14 03:56:30;;;;;;;0.75;0.30;;;15.80;78.90;;;;;;5136770;27;20089;-65
2021/10/14 03:58:56;;;;;;;0.50;0.50;;;15.70;78.80;;;;;;5137688;27;20050;-64
2021/10/14 04:01:21;;;;;;;0.30;0.30;;;15.80;78.90;;;;;;5117976;27;20042;-61
2021/10/14 04:03:47;;;;;;;1.48;0.52;;;15.80;78.90;;;;;;5137268;27;20049;-60
2021/10/14 04:06:13;;;;;;;0.30;0.30;;;15.80;78.90;;;;;;5135703;27;20078;-58
2021/10/14 04:08:38;;;;;;;0.57;0.50;;;15.80;78.90;;;;;;5136588;27;20427;-64
2021/10/14 04:11:04;;;;;;;0.40;0.40;;;15.80;78.90;;;;;;5136461;27;20035;-64
2021/10/14 04:13:30;;;;;;;0.40;0.40;;;15.80;78.90;;;;;;5136324;27;20055;-64
2021/10/14 04:15:55;;;;;;;0.40;0.40;;;15.70;78.80;;;;;;5136144;27;20112;-66
2021/10/14 04:18:21;;;;;;;0.68;0.40;;;15.80;78.90;;;;;;5118180;27;20483;-66
2021/10/14 04:20:47;;;;;;;0.43;0.30;;;15.80;78.80;;;;;;5135961;27;20055;-66
2021/10/14 04:23:14;;;;;;;0.75;0.47;;;15.80;78.80;;;;;;5136408;27;20099;-66
2021/10/14 04:25:40;;;;;;;0.45;0.45;;;15.80;78.90;;;;;;5136259;27;20043;-65
2021/10/14 04:28:06;;;;;;;0.47;0.47;;;15.80;78.80;;;;;;5136211;27;20102;-65
2021/10/14 04:30:33;;;;;;;0.50;0.40;;;15.80;78.80;;;;;;5136139;27;20041;-64
2021/10/14 04:32:59;;;;;;;0.47;0.40;;;15.80;78.90;;;;;;5135767;27;20433;-66
2021/10/14 04:35:24;;;;;;;0.40;0.40;;;15.80;78.90;;;;;;5135944;27;20191;-60
2021/10/14 04:37:50;;;;;;;0.40;0.40;;;15.80;78.90;;;;;;5134976;27;20027;-66
2021/10/14 04:40:15;;;;;;;0.47;0.47;;;15.80;78.90;;;;;;5135016;27;20039;-65
2021/10/14 04:42:41;;;;;;;1.48;0.30;;;15.80;78.80;;;;;;5136039;27;20171;-66
2021/10/14 04:45:07;;;;;;;0.52;0.52;;;15.70;78.80;;;;;;5135839;27;20142;-65
2021/10/14 04:47:33;;;;;;;1.05;0.50;;;15.80;78.80;;;;;;5135571;27;20031;-66
2021/10/14 04:49:59;;;;;;;0.98;0.50;;;15.80;78.80;;;;;;5136007;27;20548;-65
2021/10/14 04:52:25;;;;;;;0.57;0.50;;;15.80;78.90;;;;;;5134579;27;20367;-64
2021/10/14 04:54:51;;;;;;;0.43;0.40;;;15.80;78.80;;;;;;5135789;27;20084;-66
2021/10/14 04:57:16;;;;;;;0.40;0.40;;;15.80;78.80;;;;;;5135739;27;20104;-67
2021/10/14 04:59:42;;;;;;;0.63;0.60;;;15.80;78.80;;;;;;5135275;27;20518;-68
2021/10/14 05:02:08;;;;;;;0.93;0.50;;;15.80;78.80;;;;;;5135593;27;20043;-66
2021/10/14 05:04:41;;;;;;;0.52;0.50;;;15.80;78.80;;;;;;5135293;27;20088;-67
2021/10/14 05:07:07;;;;;;;0.30;0.30;;;15.80;78.90;;;;;;5117317;27;20046;-68
2021/10/14 05:09:32;;;;;;;0.57;0.57;;;15.80;78.80;;;;;;5134681;27;20405;-67
2021/10/14 05:11:59;;;;;;;1.48;0.50;;;15.80;78.80;;;;;;5116051;27;20418;-66
2021/10/14 05:14:24;;;;;;;0.77;0.52;;;15.80;78.80;;;;;;5135277;27;20071;-62
2021/10/14 05:16:53;;;;;;;0.40;0.40;;;15.80;78.90;;;;;;5135474;27;20135;-67
2021/10/14 05:19:18;;;;;;;0.40;0.40;;;15.80;78.80;;;;;;5098508;27;20047;-67
2021/10/14 05:21:44;;;;;;;0.73;0.63;;;15.80;78.80;;;;;;5135488;27;20046;-67
2021/10/14 05:24:10;;;;;;;0.47;0.32;;;15.80;78.80;;;;;;5134634;27;20058;-65
2021/10/14 05:26:35;;;;;;;0.50;0.47;;;15.80;78.80;;;;;;5135221;27;20031;-67
2021/10/14 05:29:01;;;;;;;0.68;0.63;;;15.80;78.80;;;;;;5135021;27;20466;-65
2021/10/14 05:31:27;;;;;;;0.85;0.45;;;15.80;78.80;;;;;;5134626;27;20046;-67
2021/10/14 05:33:54;;;;;;;0.40;0.40;;;15.80;78.80;;;;;;5134697;27;20456;-67
2021/10/14 05:36:20;;;;;;;0.45;0.45;;;15.80;78.90;;;;;;5134278;27;20039;-67
2021/10/14 05:38:45;;;;;;;0.45;0.45;;;15.80;78.80;;;;;;5134706;27;20380;-68
2021/10/14 05:41:11;;;;;;;0.35;0.35;;;15.80;78.80;;;;;;5133822;27;20039;-65
2021/10/14 05:43:37;;;;;;;0.43;0.43;;;15.80;78.80;;;;;;5134876;27;20031;-62
2021/10/14 05:46:03;;;;;;;0.35;0.30;;;15.80;78.80;;;;;;5134481;27;20122;-67
2021/10/14 05:48:29;;;;;;;0.50;0.50;;;15.80;78.80;;;;;;5116185;27;20096;-67
2021/10/14 05:50:54;;;;;;;0.40;0.40;;;15.80;78.90;;;;;;5133690;27;20071;-62
2021/10/14 05:53:20;;;;;;;0.40;0.40;;;15.80;78.80;;;;;;5134011;27;20092;-68
2021/10/14 05:55:47;;;;;;;0.63;0.60;;;15.80;78.80;;;;;;5150287;27;20054;-67
2021/10/14 05:58:14;;;;;;;0.65;0.55;;;15.80;78.80;;;;;;5134797;27;20054;-65
2021/10/14 06:00:39;;;;;;;0.63;0.50;;;15.80;78.80;;;;;;5134361;27;20091;-68
2021/10/14 06:03:05;;;;;;;0.60;0.60;;;15.80;78.80;;;;;;5134047;27;20039;-67
2021/10/14 06:05:31;;;;;;;0.73;0.60;;;15.80;78.80;;;;;;5134223;27;20031;-67
2021/10/14 06:07:56;;;;;;;0.50;0.40;;;15.80;78.80;;;;;;5132989;27;20176;-66
2021/10/14 06:10:22;;;;;;;0.20;0.20;;;15.80;78.80;;;;;;5133521;27;20557;-67
2021/10/14 06:12:48;;;;;;;0.80;0.60;;;15.80;78.80;;;;;;5132279;27;20047;-67
2021/10/14 06:15:13;;;;;;;0.52;0.47;;;15.80;78.80;;;;;;5132880;27;20031;-63
2021/10/14 06:17:39;;;;;;;0.40;0.40;;;15.80;78.80;;;;;;5133439;27;20035;-66
2021/10/14 06:20:05;;;;;;;0.52;0.40;;;15.80;78.80;;;;;;5133981;27;20051;-68
2021/10/14 06:22:31;;;;;;;0.98;0.52;;;15.80;79.50;;;;;;5114980;27;20043;-66
2021/10/14 06:24:57;;;;;;;0.50;0.50;;;15.80;78.80;;;;;;5133805;27;20041;-68
2021/10/14 06:27:22;;;;;;;0.55;0.50;;;15.80;78.80;;;;;;5133940;27;20039;-66
2021/10/14 06:29:48;;;;;;;0.40;0.40;;;15.80;78.80;;;;;;5133757;27;20424;-66
2021/10/14 06:32:13;;;;;;;0.57;0.57;;;15.80;78.80;;;;;;5133860;27;20494;-65
2021/10/14 06:34:39;;;;;;;0.40;0.40;;;15.80;78.80;;;;;;5133534;27;20039;-63
2021/10/14 06:37:04;;;;;;;0.45;0.45;;;15.80;78.80;;;;;;5133422;27;20050;-65
2021/10/14 06:39:30;;;;;;;0.65;0.40;;;15.90;78.80;;;;;;5133646;27;20114;-65
2021/10/14 06:41:56;;;;;;;0.43;0.43;;;15.80;78.80;;;;;;5133869;27;20056;-66
2021/10/14 06:44:22;;;;;;;0.50;0.50;;;15.80;78.80;;;;;;5132863;27;20078;-65
2021/10/14 06:46:48;;;;;;;0.52;0.50;;;15.80;78.80;;;;;;5133937;27;20042;-66
2021/10/14 06:49:14;;;;;;;1.17;0.70;;;15.80;78.80;;;;;;5132928;27;20402;-66
2021/10/14 06:51:39;;;;;;;0.50;0.50;;;15.80;78.80;;;;;;5149431;27;20043;-63
2021/10/14 06:54:05;;;;;;;1.08;0.77;;;15.80;78.80;;;;;;5133888;27;20073;-64
2021/10/14 06:56:31;;;;;;;1.13;0.60;;;15.80;78.80;;;;;;5114564;27;20042;-64
2021/10/14 06:58:56;;;;;;;0.95;0.88;;;15.80;78.80;;;;;;5114714;27;20047;-64
2021/10/14 07:01:22;;;;;;;0.88;0.77;;;15.80;78.80;;;;;;5133162;27;20064;-63
2021/10/14 07:03:48;;;;;;;0.60;0.60;;;15.80;78.80;;;;;;5114132;27;20391;-63
2021/10/14 07:06:15;;;;;;;0.63;0.60;;;15.80;78.80;;;;;;5133686;27;20066;-64
2021/10/14 07:08:41;;;;;;;0.60;0.60;;;15.80;78.80;;;;;;5133035;27;20051;-61
2021/10/14 07:11:07;;;;;;;0.93;0.80;;;15.80;78.80;;;;;;5114897;28;20104;-62
2021/10/14 07:13:33;;;;;;;1.85;0.77;;;15.80;78.70;;;;;;5133043;27;20142;-62
2021/10/14 07:15:59;;;;;;;1.15;0.60;;;15.90;78.80;;;;;;5133025;27;20093;-62
2021/10/14 07:18:25;;;;;;;0.80;0.60;;;15.80;78.80;;;;;;5133508;28;20175;-59
2021/10/14 07:20:51;;;;;;;1.40;0.60;;;15.90;78.80;;;;;;5133397;28;20391;-63
2021/10/14 07:23:16;;;;;;;0.60;0.60;;;15.80;78.70;;;;;;5133075;28;20368;-62
2021/10/14 07:25:44;;;;;;;0.65;0.60;;;15.80;78.70;;;;;;5132665;28;20111;-62
2021/10/14 07:28:11;;;;;;;1.02;0.55;;;15.80;78.80;;;;;;5133441;28;20360;-61
2021/10/14 07:33:23;;;;;;;0.43;0.40;;;15.80;78.80;;;;;;5132883;28;20100;-63
2021/10/14 07:35:48;;;;;;;1.05;0.80;;;15.80;78.80;;;;;;5138475;28;20108;-63
2021/10/14 07:38:14;;;;;;;1.00;0.70;;;15.80;78.70;;;;;;5135117;28;20482;-65
2021/10/14 07:40:41;;;;;;;1.02;1.02;;;15.80;78.70;;;;;;5132920;28;20054;-66
2021/10/14 07:43:09;;;;;;;0.57;0.57;;;15.80;78.70;;;;;;5132992;28;20513;-64
2021/10/14 07:45:35;;;;;;;1.10;0.73;;;15.80;78.70;;;;;;5114209;28;20444;-65
2021/10/14 07:48:01;;;;;;;0.63;0.63;;;15.80;78.70;;;;;;5132757;28;20042;-65
2021/10/14 07:50:27;;;;;;;1.13;1.00;;;15.80;78.70;;;;;;5132856;28;20043;-65
2021/10/14 07:52:52;;;;;;;0.77;0.77;;;15.90;78.80;;;;;;5132920;28;20039;-66
2021/10/14 07:55:18;;;;;;;0.98;0.80;;;15.70;78.60;;;;;;5133109;28;20061;-63
2021/10/14 07:57:44;;;;;;;1.02;0.80;;;15.80;78.70;;;;;;5132855;28;20100;-66
2021/10/14 08:00:11;;;;;;;0.95;0.77;;;15.80;78.70;;;;;;5114727;28;20051;-63
2021/10/14 08:02:37;;;;;;;0.73;0.73;;;15.80;78.70;;;;;;5132599;28;20453;-63
2021/10/14 08:05:03;;;;;;;1.13;0.90;;;15.80;78.80;;;;;;5132850;28;20035;-65
2021/10/14 08:07:29;;;;;;;0.85;0.85;;;15.80;78.70;;;;;;5132676;28;20066;-65
2021/10/14 08:09:55;;;;;;;0.73;0.70;;;15.80;78.70;;;;;;5132652;28;20364;-64
2021/10/14 08:12:22;;;;;;;1.00;0.85;;;15.80;78.70;;;;;;5132915;28;20055;-65
2021/10/14 08:14:48;;;;;;;1.08;0.85;;;15.80;78.70;;;;;;5133791;27;20092;-65
2021/10/14 08:17:13;;;;;;;1.00;0.90;;;15.80;78.70;;;;;;5136405;27;20043;-64
2021/10/14 08:19:39;;;;;;;0.65;0.65;;;15.90;78.80;;;;;;5136694;27;20149;-65
2021/10/14 08:22:04;;;;;;;1.15;0.93;;;15.80;78.70;;;;;;5136699;27;20046;-64
2021/10/14 08:24:30;;;;;;;0.88;0.70;;;15.80;78.70;;;;;;5115427;27;20063;-62
2021/10/14 08:26:56;;;;;;;0.80;0.80;;;15.80;78.70;;;;;;5136718;27;20124;-64
2021/10/14 08:29:22;;;;;;;0.75;0.60;;;15.80;78.70;;;;;;5136085;27;20039;-64
2021/10/14 08:31:47;;;;;;;0.98;0.80;;;15.90;78.80;;;;;;5119706;27;20495;-64
2021/10/14 08:34:13;;;;;;;0.60;0.60;;;15.80;78.70;;;;;;5135274;27;20038;-64
2021/10/14 08:36:41;;;;;;;0.77;0.77;;;15.80;78.70;;;;;;5135493;27;20047;-62
2021/10/14 08:39:07;;;;;;;0.77;0.77;;;15.80;78.70;;;;;;5116633;27;20034;-60
2021/10/14 08:41:32;;;;;;;1.00;0.80;;;15.80;78.70;;;;;;5131573;27;20046;-62
2021/10/14 08:44:01;;;;;;;0.70;0.70;;;15.80;78.70;;;;;;5149546;27;20042;-63
2021/10/14 08:46:27;;;;;;;0.98;0.88;;;15.90;78.80;;;;;;5152071;27;20455;-62
2021/10/14 08:48:53;;;;;;;1.13;0.90;;;15.90;78.80;;;;;;5112982;27;20138;-63
2021/10/14 08:51:18;;;;;;;0.68;0.68;;;15.80;78.70;;;;;;5131965;27;20038;-63
2021/10/14 08:53:47;;;;;;;1.08;0.93;;;15.80;78.70;;;;;;5131486;27;20071;-64
2021/10/14 08:56:13;;;;;;;0.88;0.80;;;15.80;78.70;;;;;;5113073;27;20055;-61
2021/10/14 08:58:39;;;;;;;0.82;0.70;;;15.90;78.80;;;;;;5112780;27;20765;-64
2021/10/14 09:01:09;;;;;;;0.65;0.65;;;15.80;78.70;;;;;;5131713;27;20035;-63
2021/10/14 09:03:39;;;;;;;0.82;0.82;;;15.80;78.70;;;;;;5131398;27;20071;-63
2021/10/14 09:06:10;;;;;;;0.93;0.70;;;15.80;78.70;;;;;;5131207;27;20054;-64
2021/10/14 09:08:46;;;;;;;0.80;0.80;;;15.90;78.80;;;;;;5112053;27;20440;-63
2021/10/14 09:11:28;;;;;;;1.38;1.00;;;15.80;78.70;;;;;;5131493;27;20047;-65
2021/10/14 09:14:02;;;;;;;0.90;0.80;;;15.90;78.70;;;;;;5130883;27;20054;-65
2021/10/14 09:16:28;;;;;;;0.85;0.75;;;15.90;78.80;;;;;;5112453;27;20055;-63
2021/10/14 09:19:15;;;;;;;1.13;1.00;;;15.80;78.70;;;;;;5147167;27;20070;-64
2021/10/14 09:21:46;;;;;;;1.10;0.90;;;15.80;78.70;;;;;;5110594;27;20096;-62
2021/10/14 09:24:37;;;;;;;1.08;0.98;;;15.90;78.80;;;;;;5112654;27;20043;-61
2021/10/14 09:27:08;;;;;;;1.02;0.75;;;15.90;78.80;;;;;;5131057;27;20050;-63
2021/10/14 09:29:35;;;;;;;1.02;0.82;;;15.80;78.70;;;;;;5130501;27;20031;-62
2021/10/14 09:32:03;;;;;;;0.90;0.90;;;15.80;78.70;;;;;;5130416;27;20627;-62
2021/10/14 09:34:32;;;;;;;0.88;0.80;;;15.90;78.80;;;;;;5130699;27;20039;-62
2021/10/14 09:37:00;;;;;;;0.80;0.80;;;15.90;78.80;;;;;;5128697;27;20039;-61
2021/10/14 09:39:26;;;;;;;1.15;0.90;;;15.80;78.70;;;;;;5130281;27;20078;-64
2021/10/14 09:41:52;;;;;;;1.17;0.90;;;15.80;78.70;;;;;;5130109;27;20562;-63
2021/10/14 09:44:19;;;;;;;0.77;0.73;;;15.80;78.70;;;;;;5111681;27;20114;-63
2021/10/14 09:46:46;;;;;;;0.82;0.82;;;15.80;78.70;;;;;;5130502;27;20443;-65
2021/10/14 09:49:29;;;;;;;0.70;0.70;;;15.80;78.70;;;;;;5130788;27;20039;-65
2021/10/14 09:51:59;;;;;;;0.80;0.80;;;15.70;78.70;;;;;;5129660;27;20119;-64
2021/10/14 09:54:26;;;;;;;0.75;0.73;;;15.90;78.80;;;;;;5130181;27;20122;-64
2021/10/14 09:56:51;;;;;;;0.80;0.70;;;15.80;78.70;;;;;;5129799;27;20043;-65
2021/10/14 09:59:17;;;;;;;0.80;0.80;;;15.80;78.70;;;;;;5130029;27;20043;-60
2021/10/14 10:01:43;;;;;;;1.02;0.80;;;15.80;78.70;;;;;;5129498;27;20047;-62
2021/10/14 10:04:09;;;;;;;1.08;0.98;;;15.90;78.80;;;;;;5110157;27;20130;-61
2021/10/14 10:06:36;;;;;;;0.73;0.73;;;15.80;79.40;;;;;;5129691;27;20039;-62
2021/10/14 10:09:20;;;;;;;0.80;0.80;;;15.80;78.70;;;;;;5128921;27;20058;-61
2021/10/14 10:11:54;;;;;;;1.33;0.80;;;15.90;78.80;;;;;;5129970;27;20505;-61
2021/10/14 10:14:22;;;;;;;0.80;0.80;;;15.80;78.70;;;;;;5130308;27;20069;-61
2021/10/14 10:16:59;;;;;;;0.90;0.73;;;15.80;78.70;;;;;;5130468;27;20039;-63
2021/10/14 10:19:48;;;;;;;0.60;0.60;;;15.90;78.80;;;;;;5124970;27;20042;-64
2021/10/14 10:22:33;;;;;;;1.17;0.77;;;15.80;78.80;;;;;;5109738;28;20083;-62
2021/10/14 10:25:15;;;;;;;1.05;0.90;;;15.90;78.80;;;;;;5131101;27;20047;-64
2021/10/14 10:27:41;;;;;;;1.10;1.00;;;15.80;78.80;;;;;;5109413;28;20083;-63
2021/10/14 10:30:06;;;;;;;1.13;1.00;;;15.90;78.80;;;;;;5091428;28;20086;-63
2021/10/14 10:32:42;;;;;;;1.00;0.90;;;15.80;78.70;;;;;;5109109;28;20488;-63
2021/10/14 10:35:10;;;;;;;1.10;1.00;;;15.80;78.70;;;;;;5109282;28;20092;-63
2021/10/14 10:37:46;;;;;;;1.00;1.00;;;15.80;78.70;;;;;;5138161;27;20245;-63
2021/10/14 10:40:16;;;;;;;1.02;0.65;;;15.90;78.80;;;;;;5134650;27;20035;-62
2021/10/14 10:42:48;;;;;;;1.33;0.88;;;15.90;78.80;;;;;;5114264;27;20402;-64
2021/10/14 10:45:18;;;;;;;1.58;1.13;;;15.90;78.80;;;;;;5124758;27;20143;-65
2021/10/14 10:47:53;;;;;;;1.08;0.95;;;15.90;78.80;;;;;;5115571;27;20050;-62
2021/10/14 10:50:33;;;;;;;1.40;1.08;;;15.80;78.80;;;;;;5112751;27;20122;-61
2021/10/14 10:53:07;;;;;;;0.80;0.80;;;15.80;78.80;;;;;;5133213;27;20503;-62
2021/10/14 10:55:38;;;;;;;1.02;0.93;;;15.90;78.80;;;;;;5132366;27;20067;-65
2021/10/14 10:58:07;;;;;;;1.55;0.90;;;15.90;78.80;;;;;;5114510;28;20141;-65
2021/10/14 11:00:34;;;;;;;0.70;0.70;;;15.90;78.80;;;;;;5132681;27;20043;-63
2021/10/14 11:03:15;;;;;;;0.73;0.73;;;15.90;78.80;;;;;;5133018;27;20046;-61
2021/10/14 11:05:48;;;;;;;0.80;0.80;;;15.90;78.80;;;;;;5132759;27;20043;-65
2021/10/14 11:08:18;;;;;;;0.80;0.80;;;15.80;78.80;;;;;;5132407;27;20054;-65
2021/10/14 11:10:46;;;;;;;1.05;0.95;;;15.90;78.80;;;;;;5131490;27;20165;-65
2021/10/14 11:13:12;;;;;;;1.02;0.93;;;15.90;78.80;;;;;;5139349;27;20861;-62
2021/10/14 11:15:38;;;;;;;1.23;1.00;;;15.80;78.80;;;;;;5153342;27;20039;-62
2021/10/14 11:18:06;;;;;;;1.00;0.90;;;15.90;78.80;;;;;;5153588;27;20045;-63
2021/10/14 11:20:34;;;;;;;1.10;0.80;;;15.90;78.80;;;;;;5153218;27;20054;-61
2021/10/14 11:23:08;;;;;;;1.70;0.88;;;15.90;78.80;;;;;;5153213;27;20042;-61
2021/10/14 11:25:35;;;;;;;1.13;0.80;;;15.90;78.80;;;;;;5152866;27;20447;-60
2021/10/14 11:28:06;;;;;;;0.88;0.88;;;15.90;78.80;;;;;;5131437;28;20105;-62
2021/10/14 11:30:39;;;;;;;1.00;0.90;;;15.90;78.80;;;;;;5130655;28;20092;-61
2021/10/14 11:33:11;;;;;;;0.95;0.85;;;15.90;78.80;;;;;;5113752;28;20146;-61
2021/10/14 11:35:39;;;;;;;0.82;0.70;;;15.90;78.80;;;;;;5131729;28;20040;-61
2021/10/14 11:38:12;;;;;;;1.70;0.90;;;15.90;78.80;;;;;;5132339;28;20067;-61
2021/10/14 11:40:40;;;;;;;1.00;0.77;;;15.90;78.80;;;;;;5113106;28;20790;-62
2021/10/14 11:43:06;;;;;;;0.70;0.70;;;15.90;78.90;;;;;;5131884;28;20039;-62
2021/10/14 11:45:32;;;;;;;1.80;1.60;;;15.90;78.90;;;;;;5113805;28;20134;-62
2021/10/14 11:47:58;;;;;;;0.80;0.80;;;15.70;78.80;;;;;;5132300;28;20173;-65
2021/10/14 11:50:31;;;;;;;0.93;0.80;;;15.90;78.80;;;;;;5135992;27;20039;-65
2021/10/14 11:53:03;;;;;;;0.60;0.60;;;15.90;78.80;;;;;;5135858;27;20043;-63
2021/10/14 11:55:29;;;;;;;0.98;0.90;;;15.90;78.80;;;;;;5117840;27;20058;-65
2021/10/14 11:57:58;;;;;;;0.63;0.63;;;15.90;78.80;;;;;;5136131;27;20379;-61
2021/10/14 12:00:25;;;;;;;0.88;0.80;;;15.90;79.50;;;;;;5118410;27;20043;-63
2021/10/14 12:02:51;;;;;;;1.30;1.10;;;15.90;78.80;;;;;;5136158;27;20051;-64
2021/10/14 12:05:17;;;;;;;1.02;0.93;;;15.90;78.80;;;;;;5136426;27;20054;-64
2021/10/14 12:07:44;;;;;;;0.82;0.82;;;15.90;78.90;;;;;;5133036;27;20047;-62
2021/10/14 12:10:35;;;;;;;1.05;0.95;;;15.90;78.90;;;;;;5118008;27;20130;-63
2021/10/14 12:13:06;;;;;;;1.13;1.02;;;15.90;78.90;;;;;;5122396;27;20100;-65
2021/10/14 12:15:33;;;;;;;0.90;0.80;;;15.90;78.80;;;;;;5156492;27;20084;-62
2021/10/14 12:17:58;;;;;;;0.80;0.80;;;15.90;78.90;;;;;;5156846;27;20462;-64
2021/10/14 12:20:25;;;;;;;1.33;1.10;;;15.90;78.80;;;;;;5156453;27;20039;-63
2021/10/14 12:22:56;;;;;;;0.98;0.88;;;15.90;78.80;;;;;;5135729;27;20081;-62
2021/10/14 12:25:39;;;;;;;0.90;0.90;;;15.90;78.80;;;;;;5117747;27;20053;-63
2021/10/14 12:28:08;;;;;;;0.80;0.80;;;15.90;78.80;;;;;;5136334;27;20147;-63
2021/10/14 12:30:39;;;;;;;1.05;0.95;;;15.90;78.90;;;;;;5135701;27;20179;-62
2021/10/14 12:33:11;;;;;;;1.08;1.00;;;15.90;78.80;;;;;;5135709;27;20390;-62
2021/10/14 12:35:39;;;;;;;1.20;1.10;;;15.90;78.80;;;;;;5152253;27;20051;-61
2021/10/14 12:38:14;;;;;;;1.27;1.17;;;15.90;78.80;;;;;;5136084;27;20152;-62
2021/10/14 12:40:56;;;;;;;1.00;0.90;;;15.90;78.90;;;;;;5131138;27;20050;-61
2021/10/14 12:43:25;;;;;;;0.95;0.90;;;15.90;78.90;;;;;;5105886;27;20043;-62
2021/10/14 12:48:36;;;;;;;1.10;1.00;;;15.90;78.90;;;;;;5135551;27;20046;-62
2021/10/14 12:51:22;;;;;;;1.10;1.00;;;15.90;78.90;;;;;;5117226;27;20065;-60
2021/10/14 12:53:53;;;;;;;;;;;15.90;78.90;;;;;;5135376;27;20043;-61